createdAt,value
2023-01-18T00:00:17.542Z,87.38
2023-01-18T00:02:53.652Z,87.74
2023-01-18T00:05:27.683Z,87.70
2023-01-18T00:07:58.865Z,87.71
2023-01-18T00:10:30.930Z,87.86
2023-01-18T00:13:01.572Z,87.87
2023-01-18T00:15:36.990Z,87.60
2023-01-18T00:18:08.818Z,87.03
2023-01-18T00:20:39.490Z,86.76
2023-01-18T00:23:12.033Z,87.24
2023-01-18T00:25:45.054Z,87.34
2023-01-18T00:28:15.957Z,87.52
2023-01-18T00:30:46.981Z,87.70
2023-01-18T00:33:18.745Z,87.54
2023-01-18T00:36:03.468Z,87.68
2023-01-18T00:38:35.636Z,87.89
2023-01-18T00:41:09.514Z,87.91
2023-01-18T00:43:41.344Z,87.98
2023-01-18T00:46:14.557Z,87.83
2023-01-18T00:48:45.574Z,87.91
2023-01-18T00:51:20.158Z,88.05
2023-01-18T00:53:52.413Z,88.20
2023-01-18T00:56:24.087Z,87.98
2023-01-18T00:58:54.581Z,88.12
2023-01-18T01:01:25.376Z,88.26
2023-01-18T01:04:14.036Z,88.32
2023-01-18T01:06:45.099Z,88.22
2023-01-18T01:09:19.812Z,87.80
2023-01-18T01:12:09.904Z,88.23
2023-01-18T01:15:01.634Z,87.98
2023-01-18T01:17:54.289Z,88.02
2023-01-18T01:20:45.189Z,88.03
2023-01-18T01:23:36.436Z,88.04
2023-01-18T01:26:09.155Z,87.95
2023-01-18T01:28:43.563Z,88.02
2023-01-18T01:31:17.731Z,87.54
2023-01-18T01:33:49.805Z,86.89
2023-01-18T01:36:24.608Z,86.52
2023-01-18T01:38:56.007Z,86.22
2023-01-18T01:41:29.511Z,86.55
2023-01-18T01:44:06.832Z,86.91
2023-01-18T01:46:43.378Z,87.26
2023-01-18T01:49:20.243Z,86.87
2023-01-18T01:51:53.713Z,86.51
2023-01-18T01:54:33.362Z,86.56
2023-01-18T01:57:12.821Z,86.98
2023-01-18T01:59:56.593Z,87.29
2023-01-18T02:02:27.951Z,87.04
2023-01-18T02:05:00.121Z,86.61
2023-01-18T02:07:32.779Z,86.15
2023-01-18T02:10:05.452Z,86.50
2023-01-18T02:12:38.314Z,86.85
2023-01-18T02:15:13.162Z,86.87
2023-01-18T02:17:56.517Z,86.70
2023-01-18T02:20:55.698Z,87.01
2023-01-18T02:23:45.850Z,86.64
2023-01-18T02:26:38.696Z,86.73
2023-01-18T02:29:18.453Z,86.53
2023-01-18T02:31:58.002Z,87.03
2023-01-18T02:34:43.919Z,86.69
2023-01-18T02:37:23.339Z,86.81
2023-01-18T02:40:18.892Z,86.63
2023-01-18T02:43:09.016Z,86.72
2023-01-18T02:46:03.396Z,86.63
2023-01-18T02:48:38.810Z,86.79
2023-01-18T02:51:09.401Z,86.71
2023-01-18T02:53:43.111Z,86.59
2023-01-18T02:56:16.629Z,86.70
2023-01-18T02:59:05.114Z,86.81
2023-01-18T03:01:47.705Z,86.75
2023-01-18T03:04:23.881Z,86.81
2023-01-18T03:06:57.665Z,87.12
2023-01-18T03:09:30.345Z,86.41
2023-01-18T03:12:04.035Z,85.94
2023-01-18T03:14:57.421Z,86.26
2023-01-18T03:17:39.753Z,86.27
2023-01-18T03:20:16.196Z,86.44
2023-01-18T03:23:10.635Z,86.39
2023-01-18T03:25:51.514Z,86.43
2023-01-18T03:28:58.276Z,86.35
2023-01-18T03:32:01.972Z,86.49
2023-01-18T03:34:56.534Z,86.48
2023-01-18T03:37:34.635Z,86.63
2023-01-18T03:40:08.320Z,86.85
2023-01-18T03:42:43.643Z,86.80
2023-01-18T03:45:23.225Z,85.73
2023-01-18T03:47:56.491Z,84.79
2023-01-18T03:50:48.248Z,85.03
2023-01-18T03:53:24.472Z,84.24
2023-01-18T03:55:58.286Z,84.46
2023-01-18T03:58:32.130Z,84.63
2023-01-18T04:01:06.522Z,84.93
2023-01-18T04:03:37.859Z,85.12
2023-01-18T04:06:09.703Z,85.21
2023-01-18T04:08:40.167Z,85.18
2023-01-18T04:11:12.045Z,85.17
2023-01-18T04:13:42.678Z,85.19
2023-01-18T04:16:14.482Z,85.24
2023-01-18T04:18:45.112Z,85.18
2023-01-18T04:21:16.730Z,85.13
2023-01-18T04:23:47.260Z,84.97
2023-01-18T04:26:20.356Z,84.75
2023-01-18T04:28:52.391Z,84.86
2023-01-18T04:31:24.151Z,84.30
2023-01-18T04:33:55.507Z,83.65
2023-01-18T04:36:28.606Z,83.65
2023-01-18T04:39:00.814Z,83.55
2023-01-18T04:41:33.053Z,83.37
2023-01-18T04:44:03.568Z,83.23
2023-01-18T04:46:34.808Z,83.16
2023-01-18T04:49:15.673Z,83.36
2023-01-18T04:51:49.055Z,83.59
2023-01-18T04:54:19.679Z,83.28
2023-01-18T04:56:50.213Z,83.19
2023-01-18T04:59:20.843Z,82.95
2023-01-18T05:01:52.921Z,83.26
2023-01-18T05:04:23.327Z,82.98
2023-01-18T05:06:53.763Z,83.37
2023-01-18T05:09:25.769Z,83.35
2023-01-18T05:11:56.248Z,83.30
2023-01-18T05:14:26.778Z,82.62
2023-01-18T05:16:57.249Z,82.61
2023-01-18T05:19:30.156Z,82.75
2023-01-18T05:22:00.745Z,82.56
2023-01-18T05:24:31.194Z,82.20
2023-01-18T05:27:05.410Z,82.54
2023-01-18T05:29:36.152Z,82.98
2023-01-18T05:32:07.099Z,83.10
2023-01-18T05:34:37.579Z,83.18
2023-01-18T05:37:08.127Z,82.92
2023-01-18T05:39:38.688Z,82.72
2023-01-18T05:42:10.516Z,82.59
2023-01-18T05:44:41.034Z,82.88
2023-01-18T05:47:14.303Z,82.93
2023-01-18T05:49:44.898Z,82.98
2023-01-18T05:52:24.639Z,82.54
2023-01-18T05:54:55.131Z,82.48
2023-01-18T05:57:29.324Z,82.82
2023-01-18T06:00:03.101Z,82.89
2023-01-18T06:02:33.709Z,83.23
2023-01-18T06:05:04.413Z,83.34
2023-01-18T06:07:35.000Z,83.30
2023-01-18T06:10:07.422Z,83.06
2023-01-18T06:12:38.950Z,82.87
2023-01-18T06:15:10.526Z,83.02
2023-01-18T06:17:41.291Z,83.04
2023-01-18T06:20:13.123Z,83.02
2023-01-18T06:22:45.411Z,83.05
2023-01-18T06:25:19.454Z,82.81
2023-01-18T06:27:49.914Z,82.93
2023-01-18T06:30:22.767Z,82.43
2023-01-18T06:32:53.340Z,81.31
2023-01-18T06:35:25.612Z,80.46
2023-01-18T06:37:56.513Z,80.25
2023-01-18T06:40:28.324Z,80.10
2023-01-18T06:43:01.791Z,80.39
2023-01-18T06:45:37.633Z,80.87
2023-01-18T06:48:08.234Z,80.49
2023-01-18T06:50:42.200Z,81.00
2023-01-18T06:53:17.634Z,81.02
2023-01-18T06:55:57.206Z,80.80
2023-01-18T06:58:30.530Z,80.07
2023-01-18T07:01:03.198Z,80.20
2023-01-18T07:03:44.067Z,80.82
2023-01-18T07:06:17.066Z,80.62
2023-01-18T07:08:52.825Z,80.43
2023-01-18T07:11:26.317Z,80.07
2023-01-18T07:14:01.122Z,80.38
2023-01-18T07:16:32.612Z,80.66
2023-01-18T07:19:05.491Z,80.06
2023-01-18T07:21:39.429Z,80.33
2023-01-18T07:24:15.378Z,79.66
2023-01-18T07:26:49.233Z,79.68
2023-01-18T07:29:20.758Z,79.90
2023-01-18T07:31:51.661Z,79.99
2023-01-18T07:34:23.866Z,79.66
2023-01-18T07:36:55.760Z,79.18
2023-01-18T07:39:26.615Z,78.62
2023-01-18T07:41:57.761Z,78.63
2023-01-18T07:44:30.515Z,78.14
2023-01-18T07:47:04.313Z,77.80
2023-01-18T07:49:35.131Z,77.57
2023-01-18T07:52:06.721Z,77.77
2023-01-18T07:54:37.577Z,77.51
2023-01-18T07:57:09.663Z,77.75
2023-01-18T07:59:41.781Z,77.14
2023-01-18T08:02:14.669Z,77.29
2023-01-18T08:04:50.968Z,76.68
2023-01-18T08:07:21.681Z,76.78
2023-01-18T08:09:55.658Z,76.64
2023-01-18T08:12:27.233Z,76.69
2023-01-18T08:15:01.040Z,76.53
2023-01-18T08:17:35.080Z,76.40
2023-01-18T08:20:13.307Z,76.24
2023-01-18T08:22:43.936Z,76.20
2023-01-18T08:25:14.561Z,75.94
2023-01-18T08:27:48.139Z,75.60
2023-01-18T08:30:20.975Z,75.32
2023-01-18T08:32:56.333Z,75.10
2023-01-18T08:35:29.868Z,75.04
2023-01-18T08:38:01.478Z,75.35
2023-01-18T08:40:32.950Z,75.21
2023-01-18T08:43:04.885Z,74.69
2023-01-18T08:45:35.652Z,74.96
2023-01-18T08:48:09.029Z,74.88
2023-01-18T08:50:39.599Z,74.74
2023-01-18T08:53:12.395Z,74.30
2023-01-18T08:55:43.069Z,74.25
2023-01-18T08:58:13.847Z,74.03
2023-01-18T09:00:45.976Z,73.44
2023-01-18T09:03:18.328Z,73.04
2023-01-18T09:05:50.421Z,73.24
2023-01-18T09:08:20.899Z,73.21
2023-01-18T09:10:52.659Z,73.52
2023-01-18T09:13:23.275Z,73.24
2023-01-18T09:16:02.549Z,73.56
2023-01-18T09:18:34.628Z,73.27
2023-01-18T09:21:10.433Z,73.38
2023-01-18T09:23:43.653Z,73.55
2023-01-18T09:26:17.627Z,73.73
2023-01-18T09:28:55.700Z,73.55
2023-01-18T09:31:30.693Z,73.85
2023-01-18T09:34:18.581Z,73.80
2023-01-18T09:36:37.848Z,73.50
2023-01-18T09:39:09.095Z,72.96
2023-01-18T09:41:45.592Z,72.90
2023-01-18T09:44:28.870Z,73.87
2023-01-18T09:47:08.277Z,73.46
2023-01-18T09:49:50.328Z,73.29
2023-01-18T09:52:32.320Z,73.21
2023-01-18T09:55:21.094Z,73.57
2023-01-18T09:58:00.752Z,73.86
2023-01-18T10:00:37.888Z,73.72
2023-01-18T10:03:22.426Z,73.77
2023-01-18T10:06:00.571Z,73.08
2023-01-18T10:08:31.383Z,73.37
2023-01-18T10:11:04.975Z,72.16
2023-01-18T10:13:59.975Z,71.64
2023-01-18T10:16:36.471Z,71.17
2023-01-18T10:19:13.530Z,71.33
2023-01-18T10:22:08.361Z,71.48
2023-01-18T10:24:57.675Z,71.59
2023-01-18T10:27:58.258Z,72.88
2023-01-18T10:30:57.375Z,71.13
2023-01-18T10:33:32.156Z,70.45
2023-01-18T10:36:07.560Z,69.80
2023-01-18T10:38:52.152Z,69.62
2023-01-18T10:41:28.283Z,69.22
2023-01-18T10:44:03.476Z,69.42
2023-01-18T10:46:36.407Z,69.22
2023-01-18T10:49:09.692Z,69.64
2023-01-18T10:51:40.525Z,70.36
2023-01-18T10:54:26.676Z,70.61
2023-01-18T10:57:10.028Z,70.85
2023-01-18T10:59:44.221Z,71.31
2023-01-18T11:02:24.091Z,71.82
2023-01-18T11:04:59.058Z,72.71
2023-01-18T11:07:30.499Z,72.47
2023-01-18T11:10:03.959Z,72.75
2023-01-18T11:12:48.234Z,72.43
2023-01-18T11:15:26.075Z,72.86
2023-01-18T11:18:09.514Z,72.88
2023-01-18T11:20:53.242Z,73.25
2023-01-18T11:23:38.561Z,73.69
2023-01-18T11:26:23.527Z,73.72
2023-01-18T11:28:56.971Z,73.47
2023-01-18T11:31:35.674Z,73.31
2023-01-18T11:34:07.836Z,73.26
2023-01-18T11:36:43.852Z,73.08
2023-01-18T11:39:32.533Z,72.78
2023-01-18T11:42:30.315Z,73.01
2023-01-18T11:45:09.270Z,72.92
2023-01-18T11:47:42.748Z,73.16
2023-01-18T11:50:27.823Z,72.78
2023-01-18T11:53:05.497Z,72.92
2023-01-18T11:55:46.579Z,72.92
2023-01-18T11:58:24.299Z,72.84
2023-01-18T12:01:01.884Z,71.88
2023-01-18T12:03:55.045Z,72.19
2023-01-18T12:06:41.523Z,71.99
2023-01-18T12:09:30.739Z,71.24
2023-01-18T12:12:24.280Z,71.67
2023-01-18T12:15:21.639Z,72.31
2023-01-18T12:18:13.701Z,72.61
2023-01-18T12:21:07.743Z,72.33
2023-01-18T12:23:57.667Z,72.38
2023-01-18T12:26:39.974Z,72.19
2023-01-18T12:29:24.226Z,72.27
2023-01-18T12:32:32.845Z,72.04
2023-01-18T12:35:24.025Z,71.72
2023-01-18T12:38:19.357Z,71.08
2023-01-18T12:41:26.763Z,71.45
2023-01-18T12:44:10.995Z,70.65
2023-01-18T12:46:51.018Z,71.18
2023-01-18T12:49:23.610Z,71.38
2023-01-18T12:52:13.000Z,71.43
2023-01-18T12:54:47.035Z,71.76
2023-01-18T12:57:22.031Z,71.81
2023-01-18T13:00:10.527Z,71.79
2023-01-18T13:02:45.754Z,72.30
2023-01-18T13:05:41.898Z,72.80
2023-01-18T13:08:18.169Z,73.75
2023-01-18T13:10:50.844Z,73.93
2023-01-18T13:13:24.994Z,73.44
2023-01-18T13:16:00.703Z,73.96
2023-01-18T13:18:42.399Z,74.12
2023-01-18T13:21:25.254Z,74.26
2023-01-18T13:24:16.903Z,74.32
2023-01-18T13:26:48.583Z,74.14
2023-01-18T13:29:29.561Z,73.98
2023-01-18T13:32:03.318Z,73.91
2023-01-18T13:34:47.641Z,74.59
2023-01-18T13:37:15.284Z,74.55
2023-01-18T13:39:49.406Z,74.26
2023-01-18T13:42:25.330Z,74.84
2023-01-18T13:45:15.905Z,75.02
2023-01-18T13:47:56.717Z,75.05
2023-01-18T13:50:35.879Z,75.07
2023-01-18T13:53:15.704Z,75.28
2023-01-18T13:56:09.195Z,75.81
2023-01-18T13:58:42.262Z,75.51
2023-01-18T14:01:15.824Z,75.72
2023-01-18T14:03:55.883Z,76.00
2023-01-18T14:06:41.220Z,75.18
2023-01-18T14:09:15.046Z,75.32
2023-01-18T14:11:48.978Z,75.73
2023-01-18T14:14:25.063Z,75.13
2023-01-18T14:17:07.596Z,75.17
2023-01-18T14:20:00.305Z,75.28
2023-01-18T14:22:49.122Z,73.90
2023-01-18T14:25:59.038Z,73.03
2023-01-18T14:28:50.758Z,72.33
2023-01-18T14:31:25.266Z,71.50
2023-01-18T14:33:57.563Z,72.30
2023-01-18T14:36:32.061Z,71.82
2023-01-18T14:39:12.389Z,72.88
2023-01-18T14:41:50.719Z,73.89
2023-01-18T14:44:24.873Z,72.07
2023-01-18T14:47:05.944Z,72.83
2023-01-18T14:49:37.553Z,73.22
2023-01-18T14:52:08.695Z,73.64
2023-01-18T14:54:42.440Z,74.04
2023-01-18T14:57:17.027Z,74.23
2023-01-18T14:59:57.089Z,74.14
2023-01-18T15:02:33.945Z,73.71
2023-01-18T15:05:21.131Z,72.73
2023-01-18T15:07:55.872Z,73.18
2023-01-18T15:10:26.799Z,71.67
2023-01-18T15:13:00.645Z,71.44
2023-01-18T15:15:35.430Z,71.75
2023-01-18T15:18:11.055Z,72.36
2023-01-18T15:20:56.807Z,72.25
2023-01-18T15:23:29.504Z,72.17
2023-01-18T15:26:05.095Z,72.11
2023-01-18T15:28:42.116Z,72.38
2023-01-18T15:31:17.184Z,72.89
2023-01-18T15:33:48.038Z,73.03
2023-01-18T15:36:22.518Z,73.00
2023-01-18T15:38:56.674Z,72.78
2023-01-18T15:41:27.921Z,73.25
2023-01-18T15:43:58.728Z,74.19
2023-01-18T15:46:30.155Z,74.87
2023-01-18T15:49:07.644Z,74.95
2023-01-18T15:51:56.884Z,75.41
2023-01-18T15:54:31.910Z,75.70
2023-01-18T15:57:20.212Z,75.62
2023-01-18T15:59:52.990Z,75.73
2023-01-18T16:02:25.394Z,75.78
2023-01-18T16:05:21.757Z,75.90
2023-01-18T16:08:09.524Z,76.09
2023-01-18T16:10:31.315Z,75.52
2023-01-18T16:13:25.648Z,75.80
2023-01-18T16:16:13.755Z,75.81
2023-01-18T16:19:05.557Z,75.68
2023-01-18T16:21:45.116Z,75.33
2023-01-18T16:24:21.639Z,75.16
2023-01-18T16:26:53.907Z,75.72
2023-01-18T16:29:25.730Z,75.75
2023-01-18T16:31:59.395Z,75.72
2023-01-18T16:34:29.814Z,75.96
2023-01-18T16:37:01.867Z,75.78
2023-01-18T16:39:33.471Z,76.40
2023-01-18T16:42:07.302Z,76.55
2023-01-18T16:44:38.464Z,76.99
2023-01-18T16:47:13.411Z,77.33
2023-01-18T16:49:49.116Z,76.98
2023-01-18T16:52:21.095Z,77.21
2023-01-18T16:54:53.241Z,77.13
2023-01-18T16:57:26.662Z,77.27
2023-01-18T16:59:57.016Z,77.62
2023-01-18T17:02:27.707Z,77.79
2023-01-18T17:04:58.233Z,78.52
2023-01-18T17:07:30.627Z,78.70
2023-01-18T17:10:02.000Z,78.88
2023-01-18T17:12:32.996Z,79.43
2023-01-18T17:15:03.650Z,79.50
2023-01-18T17:17:41.805Z,79.30
2023-01-18T17:20:19.909Z,79.50
2023-01-18T17:22:54.042Z,79.32
2023-01-18T17:25:26.605Z,79.64
2023-01-18T17:27:59.293Z,78.64
2023-01-18T17:30:30.054Z,78.47
2023-01-18T17:33:03.391Z,78.87
2023-01-18T17:35:34.189Z,77.99
2023-01-18T17:38:11.864Z,78.62
2023-01-18T17:40:42.605Z,78.47
2023-01-18T17:43:28.410Z,78.92
2023-01-18T17:45:59.848Z,78.88
2023-01-18T17:48:24.855Z,78.75
2023-01-18T17:50:59.633Z,79.14
2023-01-18T17:53:33.754Z,79.33
2023-01-18T17:56:12.583Z,79.42
2023-01-18T17:58:45.706Z,80.03
2023-01-18T18:01:20.956Z,79.93
2023-01-18T18:03:53.063Z,80.59
2023-01-18T18:06:31.326Z,80.33
2023-01-18T18:09:01.971Z,80.38
2023-01-18T18:11:37.067Z,80.42
2023-01-18T18:14:09.889Z,80.05
2023-01-18T18:16:43.535Z,80.69
2023-01-18T18:19:17.355Z,80.73
2023-01-18T18:21:53.002Z,80.08
2023-01-18T18:24:25.305Z,80.62
2023-01-18T18:26:55.898Z,80.58
2023-01-18T18:29:29.322Z,80.78
2023-01-18T18:31:59.895Z,81.25
2023-01-18T18:34:32.266Z,81.63
2023-01-18T18:37:06.481Z,81.91
2023-01-18T18:39:38.613Z,81.71
2023-01-18T18:42:12.536Z,82.02
2023-01-18T18:44:47.155Z,81.88
2023-01-18T18:47:18.922Z,82.09
2023-01-18T18:49:51.013Z,82.10
2023-01-18T18:52:21.659Z,82.10
2023-01-18T18:54:56.616Z,81.64
2023-01-18T18:57:29.420Z,82.01
2023-01-18T19:00:01.003Z,81.72
2023-01-18T19:02:32.096Z,81.87
2023-01-18T19:05:06.982Z,82.14
2023-01-18T19:07:39.715Z,81.93
2023-01-18T19:10:14.912Z,81.75
2023-01-18T19:12:47.206Z,81.79
2023-01-18T19:15:19.310Z,82.06
2023-01-18T19:17:51.814Z,81.74
2023-01-18T19:20:35.010Z,81.51
2023-01-18T19:22:59.854Z,81.81
2023-01-18T19:25:32.804Z,81.28
2023-01-18T19:28:08.184Z,81.55
2023-01-18T19:30:44.309Z,81.64
2023-01-18T19:33:16.961Z,81.45
2023-01-18T19:35:48.816Z,81.50
2023-01-18T19:38:19.901Z,81.65
2023-01-18T19:40:52.795Z,81.73
2023-01-18T19:43:24.193Z,81.95
2023-01-18T19:45:55.527Z,82.39
2023-01-18T19:48:27.535Z,82.82
2023-01-18T19:51:20.721Z,82.57
2023-01-18T19:53:48.168Z,82.82
2023-01-18T19:56:20.240Z,82.81
2023-01-18T19:58:53.608Z,82.87
2023-01-18T20:01:36.556Z,83.10
2023-01-18T20:04:00.630Z,82.74
2023-01-18T20:06:41.425Z,82.86
2023-01-18T20:09:22.168Z,83.34
2023-01-18T20:11:56.787Z,83.52
2023-01-18T20:14:41.000Z,83.57
2023-01-18T20:17:08.511Z,83.39
2023-01-18T20:19:40.198Z,83.24
2023-01-18T20:22:13.178Z,83.58
2023-01-18T20:24:47.807Z,83.64
2023-01-18T20:27:22.593Z,83.51
2023-01-18T20:29:54.422Z,83.00
2023-01-18T20:32:28.524Z,83.24
2023-01-18T20:35:08.578Z,83.13
2023-01-18T20:37:36.034Z,83.08
2023-01-18T20:40:11.893Z,82.64
2023-01-18T20:42:48.102Z,83.18
2023-01-18T20:45:20.361Z,83.45
2023-01-18T20:47:59.199Z,83.67
2023-01-18T20:50:28.352Z,83.57
2023-01-18T20:52:59.241Z,83.49
2023-01-18T20:55:30.293Z,83.99
2023-01-18T20:58:02.806Z,84.03
2023-01-18T21:00:34.891Z,84.42
2023-01-18T21:03:06.600Z,84.45
2023-01-18T21:05:37.070Z,84.69
2023-01-18T21:08:07.948Z,84.91
2023-01-18T21:10:43.966Z,84.86
2023-01-18T21:13:14.711Z,84.97
2023-01-18T21:15:47.776Z,84.92
2023-01-18T21:18:18.371Z,85.15
2023-01-18T21:20:57.976Z,85.32
2023-01-18T21:23:35.140Z,85.32
2023-01-18T21:26:13.062Z,85.39
2023-01-18T21:28:44.936Z,85.44
2023-01-18T21:31:16.669Z,85.13
2023-01-18T21:33:52.348Z,85.20
2023-01-18T21:36:28.233Z,85.33
2023-01-18T21:39:01.604Z,85.50
2023-01-18T21:41:52.469Z,85.56
2023-01-18T21:44:41.009Z,85.63
2023-01-18T21:47:12.907Z,85.56
2023-01-18T21:50:21.967Z,85.10
2023-01-18T21:52:57.908Z,85.04
2023-01-18T21:55:28.643Z,84.50
2023-01-18T21:58:19.701Z,84.54
2023-01-18T22:00:51.389Z,84.36
2023-01-18T22:03:23.681Z,84.11
2023-01-18T22:05:59.792Z,84.24
2023-01-18T22:08:31.874Z,83.88
2023-01-18T22:11:03.810Z,84.28
2023-01-18T22:13:35.097Z,84.15
2023-01-18T22:16:07.451Z,84.24
2023-01-18T22:18:39.069Z,84.19
2023-01-18T22:21:13.278Z,83.78
2023-01-18T22:23:46.121Z,84.03
2023-01-18T22:26:17.281Z,84.28
2023-01-18T22:28:49.537Z,84.12
2023-01-18T22:31:22.107Z,84.05
2023-01-18T22:33:54.381Z,83.67
2023-01-18T22:36:28.171Z,83.59
2023-01-18T22:39:01.137Z,83.59
2023-01-18T22:41:31.803Z,83.74
2023-01-18T22:44:05.361Z,84.90
2023-01-18T22:46:37.139Z,85.12
2023-01-18T22:49:09.698Z,83.65
2023-01-18T22:51:45.386Z,82.57
2023-01-18T22:54:19.145Z,82.46
2023-01-18T22:56:52.301Z,82.91
2023-01-18T22:59:25.040Z,83.22
2023-01-18T23:01:57.766Z,83.14
2023-01-18T23:04:37.135Z,82.95
2023-01-18T23:07:04.565Z,82.78
2023-01-18T23:09:37.142Z,82.89
2023-01-18T23:12:12.082Z,82.56
2023-01-18T23:15:01.933Z,82.46
2023-01-18T23:17:40.115Z,82.78
2023-01-18T23:20:16.181Z,82.98
2023-01-18T23:22:48.855Z,83.08
2023-01-18T23:25:24.544Z,83.05
2023-01-18T23:27:56.151Z,83.08
2023-01-18T23:30:28.276Z,83.13
2023-01-18T23:32:59.194Z,83.51
2023-01-18T23:35:34.300Z,83.64
2023-01-18T23:38:07.426Z,83.37
2023-01-18T23:40:58.050Z,83.25
2023-01-18T23:43:49.643Z,83.39
2023-01-18T23:46:39.658Z,83.57
2023-01-18T23:49:28.199Z,83.69
2023-01-18T23:52:17.005Z,83.51
2023-01-18T23:54:49.005Z,83.43
2023-01-18T23:57:19.694Z,83.11
2023-01-18T23:59:51.762Z,83.03
